Time;durP1;ratioP1;P1;durP2;ratioP2;P2;SDS_P1;SDS_P2;PMS_P1;PMS_P2;Temp;Humidity;BMP_temperature;BMP_pressure;BME280_temperature;BME280_humidity;BME280_pressure;Samples;Min_cycle;Max_cycle;Signal;HPM_P1;HPM_P2
2023/03/03 00:00:25;;;;;;;27.67;12.90;;;;;;;-0.76;100.00;101612.44;5042258;28;20045;-80
2023/03/03 00:02:52;;;;;;;26.13;12.63;;;;;;;-0.78;100.00;101622.75;5027039;28;20041;-79
2023/03/03 00:05:19;;;;;;;23.33;11.67;;;;;;;-0.81;100.00;101611.38;5045738;28;20119;-80
2023/03/03 00:07:47;;;;;;;26.63;11.77;;;;;;;-0.79;100.00;101615.78;5009794;28;20045;-80
2023/03/03 00:10:14;;;;;;;36.07;13.07;;;;;;;-1.05;100.00;101625.09;5027748;28;20226;-80
2023/03/03 00:12:47;;;;;;;28.50;11.30;;;;;;;-0.90;100.00;101630.03;5060823;28;20505;-80
2023/03/03 00:15:21;;;;;;;22.60;10.27;;;;;;;-1.04;100.00;101620.78;5046035;28;20086;-81
2023/03/03 00:17:48;;;;;;;22.77;9.90;;;;;;;-1.24;100.00;101627.75;5026915;28;20045;-80
2023/03/03 00:20:34;;;;;;;25.37;11.73;;;;;;;-1.28;100.00;101624.13;5049855;28;20055;-80
2023/03/03 00:23:32;;;;;;;25.80;10.50;;;;;;;-1.19;100.00;101608.06;5072811;28;20064;-80
2023/03/03 00:25:58;;;;;;;25.70;10.10;;;;;;;-1.26;100.00;101612.13;5052671;28;20045;-80
2023/03/03 00:28:42;;;;;;;26.67;11.47;;;;;;;-1.15;100.00;101622.94;5066715;28;20054;-80
2023/03/03 00:31:17;;;;;;;22.70;10.10;;;;;;;-1.15;100.00;101616.06;5062870;28;20075;-81
2023/03/03 00:33:53;;;;;;;19.97;10.03;;;;;;;-1.33;100.00;101612.69;5068259;28;20032;-81
2023/03/03 00:36:36;;;;;;;37.77;11.77;;;;;;;-1.29;100.00;101614.56;5069871;28;20071;-81
2023/03/03 00:39:17;;;;;;;20.03;8.97;;;;;;;-1.30;100.00;101611.91;5037706;28;20051;-81
2023/03/03 00:41:44;;;;;;;28.23;11.33;;;;;;;-1.44;100.00;101609.59;5052310;28;20055;-81
2023/03/03 00:44:43;;;;;;;54.83;13.43;;;;;;;-1.61;100.00;101610.56;5049468;28;20043;-81
2023/03/03 00:47:30;;;;;;;21.43;9.83;;;;;;;-1.49;100.00;101605.06;5052067;28;20024;-81
2023/03/03 00:50:06;;;;;;;28.80;11.43;;;;;;;-1.46;100.00;101603.47;5087899;28;20047;-80
2023/03/03 00:52:38;;;;;;;66.30;14.53;;;;;;;-1.41;100.00;101601.09;5071025;28;20040;-80
2023/03/03 00:55:06;;;;;;;31.37;10.20;;;;;;;-1.43;100.00;101598.44;5033252;28;20029;-80
2023/03/03 00:57:33;;;;;;;35.27;12.27;;;;;;;-1.46;100.00;101592.22;5036138;28;20060;-81
2023/03/03 01:00:00;;;;;;;22.00;11.10;;;;;;;-1.45;100.00;101587.09;5054060;28;20059;-80
2023/03/03 01:02:26;;;;;;;23.83;11.07;;;;;;;-1.37;100.00;101576.19;5040384;28;20043;-81
2023/03/03 01:04:55;;;;;;;21.40;9.67;;;;;;;-1.28;100.00;101577.44;5044265;28;20037;-81
2023/03/03 01:07:22;;;;;;;23.90;10.43;;;;;;;-1.33;100.00;101584.16;5027814;28;20071;-80
2023/03/03 01:09:49;;;;;;;24.60;10.87;;;;;;;-1.25;100.00;101572.41;5036495;28;20059;-81
2023/03/03 01:12:15;;;;;;;18.07;8.93;;;;;;;-1.43;100.00;101569.94;5058940;28;20044;-80
2023/03/03 01:14:44;;;;;;;22.87;10.53;;;;;;;-1.36;100.00;101578.84;5021963;28;20055;-79
2023/03/03 01:17:10;;;;;;;25.90;11.23;;;;;;;-1.34;100.00;101587.59;5033602;28;20037;-80
2023/03/03 01:19:40;;;;;;;25.97;11.07;;;;;;;-1.35;100.00;101592.69;5054731;28;20041;-80
2023/03/03 01:22:07;;;;;;;15.80;8.87;;;;;;;-1.46;100.00;101594.81;5071601;28;20111;-81
2023/03/03 01:24:33;;;;;;;18.83;8.90;;;;;;;-1.47;100.00;101585.28;5038201;28;20032;-81
2023/03/03 01:27:00;;;;;;;20.00;9.73;;;;;;;-1.46;100.00;101577.56;5048310;28;20045;-80
2023/03/03 01:29:27;;;;;;;23.00;10.37;;;;;;;-1.45;100.00;101575.84;5067151;28;20040;-80
2023/03/03 01:31:53;;;;;;;36.53;11.73;;;;;;;-1.46;100.00;101579.28;5056010;28;20054;-80
2023/03/03 01:34:20;;;;;;;19.10;9.07;;;;;;;-1.52;100.00;101581.59;5050014;28;20082;-80
2023/03/03 01:36:47;;;;;;;16.73;8.43;;;;;;;-1.64;100.00;101576.78;5049763;28;20063;-80
2023/03/03 01:39:14;;;;;;;19.73;9.23;;;;;;;-1.64;100.00;101576.78;5046892;28;20476;-80
2023/03/03 01:41:41;;;;;;;18.90;9.73;;;;;;;-1.42;100.00;101578.59;5056636;28;20054;-81
2023/03/03 01:44:13;;;;;;;17.90;8.40;;;;;;;-1.54;100.00;101567.69;5069772;28;20032;-80
2023/03/03 01:46:43;;;;;;;19.77;9.23;;;;;;;-1.61;100.00;101571.72;5055726;28;20044;-80
2023/03/03 01:49:24;;;;;;;19.10;8.37;;;;;;;-1.57;100.00;101564.97;5053090;28;20545;-81
2023/03/03 01:51:59;;;;;;;18.87;9.30;;;;;;;-1.61;100.00;101555.28;5048898;22;20040;-80
2023/03/03 01:54:34;;;;;;;22.60;8.27;;;;;;;-1.55;100.00;101561.63;5003410;28;20079;-80
2023/03/03 01:57:04;;;;;;;20.13;8.40;;;;;;;-1.55;100.00;101566.81;5014556;28;20048;-80
2023/03/03 01:59:36;;;;;;;19.20;9.40;;;;;;;-1.48;100.00;101552.41;5034027;28;20092;-81
2023/03/03 02:02:04;;;;;;;16.13;8.83;;;;;;;-1.55;100.00;101556.44;5008411;28;20370;-80
2023/03/03 02:04:30;;;;;;;18.73;8.87;;;;;;;-1.53;100.00;101547.03;5014833;28;20052;-81
2023/03/03 02:07:00;;;;;;;18.70;9.27;;;;;;;-1.51;100.00;101557.47;4995629;28;20046;-79
2023/03/03 02:09:56;;;;;;;19.83;9.20;;;;;;;-1.50;100.00;101561.84;5015450;28;20044;-78
2023/03/03 02:12:28;;;;;;;16.70;9.23;;;;;;;-1.48;100.00;101566.25;5030551;28;20128;-79
2023/03/03 02:14:55;;;;;;;16.47;9.07;;;;;;;-1.43;100.00;101579.38;5034525;28;20033;-79
2023/03/03 02:17:22;;;;;;;15.03;8.37;;;;;;;-1.57;100.00;101564.97;4998891;28;20049;-79
2023/03/03 02:19:57;;;;;;;17.40;9.37;;;;;;;-1.55;100.00;101565.91;5029469;28;20048;-78
2023/03/03 02:22:34;;;;;;;16.73;8.37;;;;;;;-1.56;100.00;101569.34;5011693;28;20049;-80
2023/03/03 02:25:02;;;;;;;16.67;8.70;;;;;;;-1.47;100.00;101567.13;5011293;28;20086;-80
2023/03/03 02:27:30;;;;;;;16.67;8.50;;;;;;;-1.49;100.00;101573.97;5036761;28;20048;-81
2023/03/03 02:29:57;;;;;;;13.80;7.90;;;;;;;-1.42;100.00;101578.59;5037567;28;20099;-81
2023/03/03 02:32:24;;;;;;;14.07;7.00;;;;;;;-1.71;100.00;101566.97;5008833;28;20051;-81
2023/03/03 02:34:51;;;;;;;20.67;8.43;;;;;;;-1.65;100.00;101575.00;5003546;28;20095;-77
2023/03/03 02:37:19;;;;;;;14.73;7.63;;;;;;;-1.61;100.00;101576.00;5016156;28;20033;-78
2023/03/03 02:39:46;;;;;;;19.67;8.73;;;;;;;-1.65;100.00;101568.94;5032377;28;20524;-77
2023/03/03 02:42:19;;;;;;;14.33;7.97;;;;;;;-1.69;100.00;101573.09;5020823;28;20041;-80
2023/03/03 02:44:46;;;;;;;15.48;7.57;;;;;;;-1.50;100.00;101580.84;5020382;28;20037;-79
2023/03/03 02:47:13;;;;;;;14.93;7.93;;;;;;;-1.61;100.00;101579.50;5013977;28;20041;-79
2023/03/03 02:49:41;;;;;;;16.80;7.20;;;;;;;-1.69;100.00;101580.84;5045445;28;20052;-79
2023/03/03 02:52:09;;;;;;;16.23;7.60;;;;;;;-1.64;100.00;101581.97;5010922;28;20041;-79
2023/03/03 02:54:36;;;;;;;15.97;8.10;;;;;;;-1.68;100.00;101573.97;5038737;28;20033;-79
2023/03/03 02:57:04;;;;;;;15.73;8.33;;;;;;;-1.54;100.00;101583.25;5028459;28;20033;-78
2023/03/03 02:59:31;;;;;;;15.47;8.00;;;;;;;-1.46;100.00;101574.97;5016259;28;20056;-78
2023/03/03 03:01:57;;;;;;;14.83;8.33;;;;;;;-1.62;100.00;101582.03;5017083;28;20501;-78
2023/03/03 03:04:25;;;;;;;15.33;7.80;;;;;;;-1.65;100.00;101584.50;5039877;28;20047;-79
2023/03/03 03:06:53;;;;;;;20.80;8.13;;;;;;;-1.46;100.00;101582.75;5048852;28;20037;-79
2023/03/03 03:09:21;;;;;;;14.53;8.20;;;;;;;-1.57;100.00;101576.22;4989213;28;20040;-80
2023/03/03 03:11:48;;;;;;;16.93;8.10;;;;;;;-1.60;100.00;101567.41;5037306;28;20044;-82
2023/03/03 03:14:15;;;;;;;14.37;7.53;;;;;;;-1.61;100.00;101574.31;5002586;28;20041;-80
2023/03/03 03:16:41;;;;;;;14.13;7.03;;;;;;;-1.58;100.00;101569.28;5016349;28;20053;-80
2023/03/03 03:19:08;;;;;;;15.33;7.60;;;;;;;-1.57;100.00;101575.34;5009889;28;20068;-79
2023/03/03 03:21:35;;;;;;;16.37;7.50;;;;;;;-1.41;100.00;101564.81;5034580;28;20087;-79
2023/03/03 03:24:02;;;;;;;13.43;7.23;;;;;;;-1.50;100.00;101573.09;5019405;28;20052;-81
2023/03/03 03:26:28;;;;;;;15.23;7.50;;;;;;;-1.49;100.00;101561.00;5011884;28;20487;-78
2023/03/03 03:28:55;;;;;;;12.23;7.33;;;;;;;-1.58;100.00;101545.06;5012026;28;20045;-78
2023/03/03 03:31:22;;;;;;;14.07;7.00;;;;;;;-1.53;100.00;101557.38;4999553;28;20080;-78
2023/03/03 03:33:48;;;;;;;14.20;7.90;;;;;;;-1.48;100.00;101574.03;5019100;28;20094;-81
2023/03/03 03:36:16;;;;;;;13.70;7.17;;;;;;;-1.54;100.00;101567.69;4998518;28;20032;-81
2023/03/03 03:38:43;;;;;;;13.30;7.53;;;;;;;-1.44;100.00;101564.66;5019761;28;20090;-81
2023/03/03 03:41:11;;;;;;;13.93;6.73;;;;;;;-1.53;100.00;101559.97;5019898;28;20083;-81
2023/03/03 03:43:38;;;;;;;13.03;6.77;;;;;;;-1.62;100.00;101554.41;5018635;28;20060;-80
2023/03/03 03:46:05;;;;;;;17.23;7.03;;;;;;;-1.64;100.00;101560.34;5036014;28;20551;-81
2023/03/03 03:48:32;;;;;;;15.30;6.83;;;;;;;-1.67;100.00;101563.69;5033622;28;20322;-81
2023/03/03 03:50:59;;;;;;;15.10;7.47;;;;;;;-1.65;100.00;101553.41;5035575;28;20041;-81
2023/03/03 03:53:26;;;;;;;14.33;7.17;;;;;;;-1.63;100.00;101551.75;5016988;28;20444;-80
2023/03/03 03:55:53;;;;;;;14.57;7.10;;;;;;;-1.60;100.00;101551.88;5013999;28;20048;-79
2023/03/03 03:58:20;;;;;;;12.43;7.00;;;;;;;-1.58;100.00;101548.56;5015276;28;20041;-80
2023/03/03 04:00:47;;;;;;;13.50;7.00;;;;;;;-1.49;100.00;101545.47;5033683;28;20037;-80
2023/03/03 04:03:13;;;;;;;12.33;7.17;;;;;;;-1.52;100.00;101545.31;5028480;28;20118;-80
2023/03/03 04:05:41;;;;;;;11.60;7.17;;;;;;;-1.60;100.00;101541.50;5003886;28;20053;-81
2023/03/03 04:08:08;;;;;;;16.80;7.17;;;;;;;-1.57;100.00;101546.84;5004633;28;20082;-80
2023/03/03 04:10:35;;;;;;;12.83;6.93;;;;;;;-1.51;100.00;101549.69;5012088;28;20111;-80
2023/03/03 04:13:02;;;;;;;14.93;8.30;;;;;;;-1.47;100.00;101549.00;5034060;28;20063;-80
2023/03/03 04:15:28;;;;;;;14.07;7.33;;;;;;;-1.55;100.00;101550.38;5031262;28;20032;-80
2023/03/03 04:17:55;;;;;;;16.73;8.70;;;;;;;-1.59;100.00;101546.78;5030269;28;20151;-80
2023/03/03 04:20:22;;;;;;;13.37;7.03;;;;;;;-1.57;100.00;101549.44;5015669;28;20048;-79
2023/03/03 04:22:49;;;;;;;13.50;6.40;;;;;;;-1.49;100.00;101550.66;5010007;28;20683;-79
2023/03/03 04:25:16;;;;;;;14.13;7.60;;;;;;;-1.53;100.00;101562.56;5036635;28;20152;-79
2023/03/03 04:27:43;;;;;;;14.77;7.83;;;;;;;-1.61;100.00;101556.16;5038949;28;20426;-79
2023/03/03 04:30:12;;;;;;;14.10;7.13;;;;;;;-1.54;100.00;101549.56;5021479;28;20040;-79
2023/03/03 04:32:39;;;;;;;19.07;8.70;;;;;;;-1.60;100.00;101536.31;5020713;28;20078;-79
2023/03/03 04:35:06;;;;;;;14.13;7.20;;;;;;;-1.61;100.00;101544.91;5043308;28;20037;-79
2023/03/03 04:37:37;;;;;;;13.37;6.77;;;;;;;-1.71;100.00;101539.34;5034854;28;20037;-80
2023/03/03 04:40:07;;;;;;;12.40;7.20;;;;;;;-1.65;100.00;101532.66;5001114;28;20037;-81
2023/03/03 04:42:34;;;;;;;14.13;7.20;;;;;;;-1.61;100.00;101540.63;5032510;28;20041;-80
2023/03/03 04:45:01;;;;;;;15.27;7.77;;;;;;;-1.57;100.00;101546.84;5016950;28;20079;-81
2023/03/03 04:47:28;;;;;;;15.77;7.87;;;;;;;-1.60;100.00;101520.78;5013003;28;20041;-80
2023/03/03 04:49:55;;;;;;;15.37;7.23;;;;;;;-1.54;100.00;101523.63;5047982;28;20043;-80
2023/03/03 04:52:22;;;;;;;17.07;7.90;;;;;;;-1.61;100.00;101524.19;5000454;28;20059;-80
2023/03/03 04:54:48;;;;;;;14.53;7.90;;;;;;;-1.62;100.00;101527.59;5017928;28;20041;-80
2023/03/03 04:57:15;;;;;;;15.50;7.50;;;;;;;-1.55;100.00;101524.47;5011089;28;20037;-80
2023/03/03 04:59:44;;;;;;;16.23;8.03;;;;;;;-1.55;100.00;101525.34;5013264;28;20045;-81
2023/03/03 05:02:12;;;;;;;17.00;8.17;;;;;;;-1.65;100.00;101533.56;5012264;28;20037;-80
2023/03/03 05:04:38;;;;;;;14.73;8.00;;;;;;;-1.56;100.00;101535.66;5034624;28;20044;-81
2023/03/03 05:07:05;;;;;;;19.13;9.40;;;;;;;-1.58;100.00;101540.78;5018157;28;20084;-81
2023/03/03 05:09:32;;;;;;;16.80;7.93;;;;;;;-1.61;100.00;101535.44;5032264;28;20040;-81
2023/03/03 05:11:59;;;;;;;13.90;7.47;;;;;;;-1.54;100.00;101537.47;4995090;28;20064;-80
2023/03/03 05:14:26;;;;;;;16.83;8.03;;;;;;;-1.55;100.00;101540.00;5019364;28;20064;-81
2023/03/03 05:16:53;;;;;;;19.27;8.43;;;;;;;-1.49;100.00;101532.50;5015051;28;20410;-80
2023/03/03 05:19:23;;;;;;;17.73;8.77;;;;;;;-1.50;100.00;101533.34;5030112;28;20049;-80
2023/03/03 05:21:49;;;;;;;19.53;8.93;;;;;;;-1.50;100.00;101535.91;5031823;28;20033;-81
2023/03/03 05:24:16;;;;;;;21.03;10.50;;;;;;;-1.50;100.00;101539.41;5014855;28;20104;-81
2023/03/03 05:26:44;;;;;;;19.77;8.50;;;;;;;-1.45;100.00;101547.34;5018180;28;20422;-81
2023/03/03 05:29:10;;;;;;;23.50;10.50;;;;;;;-1.50;100.00;101547.16;5012100;28;20045;-80
2023/03/03 05:31:37;;;;;;;24.37;10.57;;;;;;;-1.50;100.00;101547.16;5030582;28;20048;-80
2023/03/03 05:34:04;;;;;;;20.93;9.30;;;;;;;-1.49;100.00;101541.16;5011346;28;20127;-81
2023/03/03 05:36:30;;;;;;;21.67;10.37;;;;;;;-1.46;100.00;101530.03;5004341;28;20098;-79
2023/03/03 05:38:57;;;;;;;18.83;9.77;;;;;;;-1.43;100.00;101531.06;5015722;28;20041;-80
2023/03/03 05:41:24;;;;;;;22.10;9.17;;;;;;;-1.44;100.00;101529.25;5016720;28;20072;-80
2023/03/03 05:43:50;;;;;;;21.73;10.23;;;;;;;-1.49;100.00;101541.16;5008781;28;20129;-80
2023/03/03 05:46:17;;;;;;;24.93;10.47;;;;;;;-1.47;100.00;101533.44;5000095;28;20231;-80
2023/03/03 05:48:44;;;;;;;21.73;10.53;;;;;;;-1.46;100.00;101543.00;4996999;28;20128;-80
2023/03/03 05:51:10;;;;;;;19.53;9.40;;;;;;;-1.50;100.00;101544.56;4997747;28;20559;-80
2023/03/03 05:53:37;;;;;;;19.10;9.17;;;;;;;-1.45;100.00;101536.97;5022263;28;20114;-79
2023/03/03 05:56:04;;;;;;;19.10;9.47;;;;;;;-1.46;100.00;101546.47;5040370;28;20184;-80
2023/03/03 05:58:31;;;;;;;19.80;9.73;;;;;;;-1.48;100.00;101535.16;5033133;28;20037;-80
2023/03/03 06:00:57;;;;;;;21.00;9.50;;;;;;;-1.46;100.00;101530.03;5010162;28;20103;-80
2023/03/03 06:03:24;;;;;;;23.47;8.70;;;;;;;-1.44;100.00;101534.44;5019473;28;20040;-80
2023/03/03 06:05:51;;;;;;;22.53;9.83;;;;;;;-1.38;100.00;101539.00;5002854;28;20041;-80
2023/03/03 06:08:17;;;;;;;22.53;10.13;;;;;;;-1.37;100.00;101543.38;5023705;28;20489;-80
2023/03/03 06:10:44;;;;;;;22.67;10.60;;;;;;;-1.36;100.00;101537.38;5022935;28;20049;-79
2023/03/03 06:13:10;;;;;;;22.53;11.37;;;;;;;-1.28;100.00;101543.75;5016502;28;20037;-80
2023/03/03 06:15:37;;;;;;;23.00;8.70;;;;;;;-1.23;100.00;101544.84;5017830;28;20041;-79
2023/03/03 06:18:04;;;;;;;20.70;10.17;;;;;;;-1.06;100.00;101555.03;5035937;28;20055;-81
2023/03/03 06:20:31;;;;;;;19.20;8.83;;;;;;;-1.14;100.00;101559.88;5006696;28;20131;-80
2023/03/03 06:22:58;;;;;;;17.00;7.97;;;;;;;-1.16;100.00;101562.41;5049018;28;20047;-79
2023/03/03 06:25:25;;;;;;;19.17;8.03;;;;;;;-1.18;100.00;101571.84;5032710;28;20044;-80
2023/03/03 06:27:51;;;;;;;19.50;8.87;;;;;;;-1.15;100.00;101577.16;5052876;28;20044;-80
2023/03/03 06:30:18;;;;;;;19.17;8.67;;;;;;;-1.27;100.00;101588.69;5049525;28;20045;-80
2023/03/03 06:32:45;;;;;;;15.37;8.07;;;;;;;-1.32;100.00;101585.94;5022991;28;20053;-80
2023/03/03 06:35:12;;;;;;;14.90;7.40;;;;;;;-1.27;100.00;101592.19;5017622;28;20444;-79
2023/03/03 06:37:38;;;;;;;17.93;8.23;;;;;;;-1.38;100.00;101598.63;5001807;28;20628;-80
2023/03/03 06:40:06;;;;;;;18.17;8.77;;;;;;;-1.38;100.00;101603.81;5033524;28;20045;-80
2023/03/03 06:42:33;;;;;;;17.90;7.67;;;;;;;-1.26;100.00;101609.53;5038423;28;20091;-80
2023/03/03 06:44:59;;;;;;;16.17;8.27;;;;;;;-1.34;100.00;101600.53;5016540;28;20489;-80
2023/03/03 06:47:27;;;;;;;14.53;7.43;;;;;;;-1.41;100.00;101606.28;5035285;28;20049;-79
2023/03/03 06:49:53;;;;;;;17.10;8.50;;;;;;;-1.27;100.00;101593.88;5010048;28;20038;-80
2023/03/03 06:52:23;;;;;;;18.47;9.03;;;;;;;-1.33;100.00;101594.53;5034206;28;20109;-79
2023/03/03 06:54:53;;;;;;;18.53;8.30;;;;;;;-1.25;100.00;101593.16;5034042;28;20041;-79
2023/03/03 06:57:27;;;;;;;17.97;8.40;;;;;;;-1.20;100.00;101596.81;5025721;28;20048;-80
2023/03/03 06:59:56;;;;;;;17.02;7.85;;;;;;;-1.19;100.00;101592.50;5029567;28;20429;-79
2023/03/03 07:02:23;;;;;;;20.60;10.27;;;;;;;-1.19;100.00;101592.50;5008122;28;20041;-81
2023/03/03 07:04:49;;;;;;;17.67;9.10;;;;;;;-1.18;100.00;101600.38;5053402;28;20048;-80
2023/03/03 07:07:24;;;;;;;19.60;10.00;;;;;;;-1.10;100.00;101594.59;5012401;28;20053;-79
2023/03/03 07:09:53;;;;;;;23.77;9.80;;;;;;;-1.07;100.00;101585.25;5017765;28;20040;-80
2023/03/03 07:12:22;;;;;;;20.07;10.20;;;;;;;-1.00;100.00;101586.41;5014932;28;20449;-80
2023/03/03 07:14:54;;;;;;;18.73;8.50;;;;;;;-1.05;100.00;101585.31;5029530;28;20048;-80
2023/03/03 07:17:23;;;;;;;17.17;8.20;;;;;;;-1.16;100.00;101597.84;5014742;28;20063;-80
2023/03/03 07:19:50;;;;;;;15.37;8.17;;;;;;;-0.98;100.00;101597.72;5026355;28;20095;-80
2023/03/03 07:22:24;;;;;;;18.20;9.00;;;;;;;-1.04;100.00;101594.84;5010654;28;20048;-80
2023/03/03 07:24:53;;;;;;;18.88;9.40;;;;;;;-1.06;100.00;101593.91;5026118;28;20053;-80
2023/03/03 07:27:25;;;;;;;14.43;7.00;;;;;;;-1.03;100.00;101599.22;5002141;28;20040;-81
2023/03/03 07:30:15;;;;;;;16.75;8.68;;;;;;;-0.97;100.00;101597.78;5002208;28;20037;-81
2023/03/03 07:32:44;;;;;;;17.63;7.37;;;;;;;-0.85;100.00;101587.88;5024752;28;20072;-80
2023/03/03 07:35:32;;;;;;;14.90;8.10;;;;;;;-0.74;100.00;101590.94;5017915;28;20041;-79
2023/03/03 07:38:00;;;;;;;15.90;6.67;;;;;;;-0.79;100.00;101609.72;5015483;28;20409;-80
2023/03/03 07:40:36;;;;;;;14.30;7.90;;;;;;;-0.73;100.00;101597.88;5032048;28;20119;-79
2023/03/03 07:43:27;;;;;;;16.40;7.77;;;;;;;-0.73;100.00;101579.72;5041301;28;20036;-79
2023/03/03 07:46:30;;;;;;;18.07;8.00;;;;;;;-0.59;100.00;101599.34;5007360;28;20091;-80
2023/03/03 07:48:57;;;;;;;18.37;8.87;;;;;;;-0.51;100.00;101606.50;5005254;28;20083;-81
2023/03/03 07:51:35;;;;;;;17.07;7.17;;;;;;;-0.46;100.00;101602.41;5033315;28;20132;-79
2023/03/03 07:54:39;;;;;;;17.00;8.20;;;;;;;-0.25;100.00;101594.53;5021491;28;20621;-80
2023/03/03 07:57:08;;;;;;;15.57;8.00;;;;;;;-0.08;100.00;101604.75;5013094;28;20033;-79
2023/03/03 08:02:29;;;;;;;16.63;8.03;;;;;;;-0.17;100.00;101611.28;5035063;28;20087;-80
2023/03/03 08:04:56;;;;;;;14.83;7.83;;;;;;;-0.21;100.00;101609.41;5032069;28;20105;-80
2023/03/03 08:07:22;;;;;;;16.70;8.53;;;;;;;-0.21;100.00;101602.50;4988184;28;20371;-80
2023/03/03 08:09:56;;;;;;;17.30;7.50;;;;;;;-0.29;100.00;101604.81;5003204;28;20036;-79
2023/03/03 08:12:23;;;;;;;16.25;7.78;;;;;;;-0.17;100.00;101606.09;5004005;28;20575;-81
2023/03/03 08:14:50;;;;;;;18.60;8.83;;;;;;;-0.20;100.00;101606.00;5038130;28;20501;-80
2023/03/03 08:17:23;;;;;;;16.07;7.37;;;;;;;-0.10;100.00;101608.09;5046880;28;20044;-78
2023/03/03 08:19:50;;;;;;;17.10;8.20;;;;;;;-0.01;100.00;101609.34;5009771;28;20409;-80
2023/03/03 08:22:29;;;;;;;13.13;6.97;;;;;;;-0.13;100.00;101611.47;5039678;28;20046;-80
2023/03/03 08:24:55;;;;;;;16.47;8.27;;;;;;;-0.12;100.00;101610.66;5006702;28;20127;-80
2023/03/03 08:27:22;;;;;;;17.40;8.73;;;;;;;0.01;100.00;101606.81;5013315;28;20120;-79
2023/03/03 08:29:49;;;;;;;18.97;8.83;;;;;;;0.05;100.00;101603.50;5030343;28;20047;-79
2023/03/03 08:32:16;;;;;;;17.80;8.37;;;;;;;0.10;100.00;101614.06;5020676;28;20029;-81
2023/03/03 08:34:42;;;;;;;16.30;7.93;;;;;;;0.07;100.00;101609.63;5020197;28;20053;-82
2023/03/03 08:37:09;;;;;;;17.33;9.03;;;;;;;0.14;100.00;101611.63;5020529;28;20043;-81
2023/03/03 08:39:39;;;;;;;18.00;7.93;;;;;;;0.10;100.00;101603.69;5021217;28;20091;-81
2023/03/03 08:42:07;;;;;;;15.07;7.83;;;;;;;0.08;100.00;101618.31;5033396;28;20412;-81
2023/03/03 08:44:33;;;;;;;15.67;8.33;;;;;;;0.14;100.00;101611.63;5057645;28;20036;-80
2023/03/03 08:47:00;;;;;;;16.60;8.73;;;;;;;0.16;100.00;101598.69;5049761;28;20500;-81
2023/03/03 08:49:27;;;;;;;19.20;9.13;;;;;;;0.19;100.00;101609.22;5006511;28;20568;-81
2023/03/03 08:51:54;;;;;;;19.13;9.30;;;;;;;0.22;100.00;101607.59;5048163;28;20045;-81
2023/03/03 08:54:21;;;;;;;18.00;8.43;;;;;;;0.10;100.00;101614.97;5021071;28;20041;-80
2023/03/03 08:56:47;;;;;;;19.57;9.70;;;;;;;0.13;100.00;101622.84;5029589;28;20145;-79
2023/03/03 08:59:14;;;;;;;19.07;8.67;;;;;;;0.17;100.00;101613.44;5016817;28;20038;-80
2023/03/03 09:01:43;;;;;;;18.50;8.73;;;;;;;0.05;100.00;101608.69;5008055;28;20425;-80
2023/03/03 09:04:10;;;;;;;18.43;8.50;;;;;;;0.19;100.00;101609.22;5058634;28;20537;-80
2023/03/03 09:06:37;;;;;;;21.70;10.73;;;;;;;0.21;100.00;101605.81;5025077;28;20037;-81
2023/03/03 09:09:04;;;;;;;17.73;9.33;;;;;;;0.17;100.00;101609.16;5038258;28;20041;-80
2023/03/03 09:11:31;;;;;;;29.73;9.33;;;;;;;0.18;100.00;101617.84;5030838;28;20048;-80
2023/03/03 09:14:12;;;;;;;27.67;11.87;;;;;;;0.33;100.00;101607.97;5017577;28;20056;-80
2023/03/03 09:16:42;;;;;;;18.83;9.90;;;;;;;0.36;100.00;101600.31;5020833;28;20482;-80
2023/03/03 09:19:22;;;;;;;20.30;9.70;;;;;;;0.47;100.00;101600.69;5019942;28;20037;-80
2023/03/03 09:21:55;;;;;;;16.33;8.67;;;;;;;0.46;100.00;101609.31;5037488;28;20049;-80
2023/03/03 09:24:29;;;;;;;17.60;9.13;;;;;;;0.51;100.00;101615.56;5020484;28;20041;-80
2023/03/03 09:26:57;;;;;;;22.57;9.53;;;;;;;0.56;100.00;101614.00;5039638;28;20047;-81
2023/03/03 09:29:29;;;;;;;20.13;10.03;;;;;;;0.59;100.00;101613.22;5034441;28;20040;-79
2023/03/03 09:31:59;;;;;;;21.40;9.37;;;;;;;0.55;100.00;101610.53;5020272;28;20037;-80
2023/03/03 09:34:34;;;;;;;18.47;9.57;;;;;;;0.38;100.00;101615.97;5037575;28;20051;-81
2023/03/03 09:37:14;;;;;;;17.17;8.83;;;;;;;0.42;100.00;101608.34;5038536;28;20599;-80
2023/03/03 09:39:41;;;;;;;24.43;9.13;;;;;;;0.43;100.00;101604.91;5064650;28;20041;-80
2023/03/03 09:42:23;;;;;;;18.47;10.13;;;;;;;0.52;100.00;101604.34;5040097;28;20040;-80
2023/03/03 09:45:11;;;;;;;19.73;10.53;;;;;;;0.54;100.00;101593.16;5038359;28;20045;-79
2023/03/03 09:48:02;;;;;;;23.10;10.73;;;;;;;0.63;100.00;101597.78;5043425;28;20043;-80
2023/03/03 09:50:48;;;;;;;22.70;10.47;;;;;;;0.69;100.00;101602.34;5041535;28;20032;-79
2023/03/03 09:53:40;;;;;;;18.77;9.03;;;;;;;0.71;100.00;101606.75;5023373;28;20584;-79
2023/03/03 09:56:24;;;;;;;22.63;10.60;;;;;;;0.81;100.00;101607.94;5030903;28;20048;-80
2023/03/03 09:59:12;;;;;;;18.90;9.30;;;;;;;0.79;100.00;101600.09;5040431;28;20405;-80
2023/03/03 10:02:01;;;;;;;36.47;18.93;;;;;;;0.75;100.00;101605.13;5001754;28;20467;-79
2023/03/03 10:04:41;;;;;;;38.93;19.83;;;;;;;0.70;100.00;101606.69;5017517;28;20103;-80
2023/03/03 10:07:23;;;;;;;33.73;15.27;;;;;;;0.89;100.00;101596.06;5001015;28;20494;-79
2023/03/03 10:10:23;;;;;;;28.73;14.30;;;;;;;0.99;100.00;101605.94;5000936;28;20042;-80
2023/03/03 10:13:00;;;;;;;23.70;11.73;;;;;;;1.10;100.00;101614.13;5034405;28;20490;-80
2023/03/03 10:15:39;;;;;;;22.03;10.80;;;;;;;1.10;100.00;101616.75;5034845;28;20046;-80
2023/03/03 10:18:05;;;;;;;21.03;9.33;;;;;;;1.14;100.00;101616.00;5069318;28;20040;-80
2023/03/03 10:20:53;;;;;;;18.30;9.57;;;;;;;0.98;100.00;101621.53;5060178;28;20063;-79
2023/03/03 10:23:42;;;;;;;17.63;8.77;;;;;;;1.06;100.00;101626.16;5023309;28;20045;-79
2023/03/03 10:26:37;;;;;;;20.47;10.10;;;;;;;1.04;100.00;101612.22;5033455;28;20041;-80
2023/03/03 10:29:23;;;;;;;20.57;10.07;;;;;;;1.07;100.00;101620.09;4993397;28;20069;-80
2023/03/03 10:32:11;;;;;;;18.83;8.60;;;;;;;0.91;100.00;101620.41;5042108;28;20482;-80
2023/03/03 10:34:48;;;;;;;21.27;9.60;;;;;;;1.16;100.00;101616.03;5042467;28;20037;-80
2023/03/03 10:37:21;;;;;;;19.27;9.67;;;;;;;1.28;100.00;101613.84;5040911;28;20510;-80
2023/03/03 10:40:12;;;;;;;20.13;10.27;;;;;;;1.33;100.00;101614.88;5042965;28;20113;-80
2023/03/03 10:42:45;;;;;;;20.87;9.63;;;;;;;1.38;100.00;101608.09;5056919;28;20451;-79
2023/03/03 10:45:20;;;;;;;19.07;9.10;;;;;;;1.50;100.00;101611.09;5035990;28;20075;-79
2023/03/03 10:48:12;;;;;;;20.30;9.53;;;;;;;1.53;100.00;101616.41;5057088;28;20482;-79
2023/03/03 10:51:02;;;;;;;20.90;10.27;;;;;;;1.56;100.00;101613.88;5036981;28;20517;-79
2023/03/03 10:53:55;;;;;;;21.40;10.83;;;;;;;1.54;100.00;101614.69;5038151;28;20064;-79
2023/03/03 10:56:32;;;;;;;20.70;9.10;;;;;;;1.55;100.00;101619.06;5019003;28;20034;-80
2023/03/03 10:59:32;;;;;;;18.83;9.43;;;;;;;1.51;100.00;101620.66;5032988;28;20103;-80
2023/03/03 11:02:05;;;;;;;20.33;10.57;;;;;;;1.55;100.00;101617.34;5016472;28;20405;-79
2023/03/03 11:04:47;;;;;;;21.17;10.70;;;;;;;1.66;100.00;101609.84;5037307;28;20059;-79
2023/03/03 11:07:25;;;;;;;20.20;12.17;;;;;;;1.62;100.00;101611.47;5044185;28;20079;-80
2023/03/03 11:10:07;;;;;;;20.13;9.43;;;;;;;1.75;100.00;101617.06;5060203;28;20135;-80
2023/03/03 11:12:46;;;;;;;21.47;9.80;;;;;;;1.85;100.00;101611.28;5043551;28;20041;-79
2023/03/03 11:15:25;;;;;;;21.10;10.43;;;;;;;1.87;100.00;101614.84;5042799;28;20037;-80
2023/03/03 11:18:15;;;;;;;21.17;9.87;;;;;;;1.90;100.00;101600.16;5042144;28;20041;-80
2023/03/03 11:21:01;;;;;;;18.17;9.57;;;;;;;1.92;100.00;101593.28;5060997;28;20067;-80
2023/03/03 11:23:49;;;;;;;21.73;9.70;;;;;;;1.92;100.00;101595.88;5000117;28;20041;-80
2023/03/03 11:26:41;;;;;;;21.67;9.87;;;;;;;1.96;100.00;101594.25;5025645;28;20125;-80
2023/03/03 11:29:16;;;;;;;20.30;9.93;;;;;;;2.17;100.00;101587.03;5025625;28;20133;-80
2023/03/03 11:31:52;;;;;;;17.83;9.47;;;;;;;2.32;100.00;101591.81;5062729;28;20041;-80